Airfield :







YOU CAN JOIN US ON...

 
LOGIN :

Register | Disclaimer

   EN    FR    IT 

 









Legend :    VFR   Marginal VFR   IFR   Intensive IFR   Very Intensive IFR
Visi :
Ceiling :
>= 8 km
>= 3000ft
5 to 8 km
1000 to 3000 ft
1500m to 5 km
500 to 1000 ft
800 to 1500m
200 to 500 ft
< 800m
< 200 ft
Symbols :   Thunderstorms  Fog  Heavy snow  Heavy precipitations  Wind > 20 kt







- Airport Elevation : 334 ft
- AIRPORT CLOSED.


KCWN - White Mountain

CURRENT METAR :
  • 160158Z AUTO 17009KT 10SM BKN150 22/04 A3013 RMK AO2 SLP016 T02170042 $

EXPIRED METARs :
  • 160059Z AUTO 16012KT 10SM OVC160 23/03 A3014 RMK AO2 SLP020 T02260031 $
  • 152358Z AUTO 16007KT 10SM FEW150 BKN180 24/M04 A3014 RMK AO2 SLP020 T02381045 10278 20238 57006 $
  • 152258Z AUTO 15007KT 10SM SCT140 BKN180 24/M03 A3015 RMK AO2 SLP023 T02391035 $

TAF N/A
No reported NOTAMs for that airfield.



MET'MAP, your aeronautical weather chart ! - Copyright ORBIFLY December 2007 - Disclaimer

ORBIFLY MET'MAP TEAM :

Programming & Development : Alexandra Zaïnal
Concept & Development : Baudouin d'Aumeries
Co-Development & Prog : Marc-Olivier Méhu
Technical & hardware support : Manuel Goepfert

Contact : metmap@orbifly.com




SOURCES & CREDITS :

   NOAA